Time;durP1;ratioP1;P1;durP2;ratioP2;P2;SDS_P1;SDS_P2;PMS_P1;PMS_P2;Temp;Humidity;BMP_temperature;BMP_pressure;BME280_temperature;BME280_humidity;BME280_pressure;Samples;Min_cycle;Max_cycle;Signal;HPM_P1;HPM_P2
2022/01/17 00:00:52;;;;;;;27.92;13.48;;;;;;;1.02;85.68;98138.66;4985589;28;20038;-64
2022/01/17 00:03:24;;;;;;;30.38;13.95;;;;;;;0.93;85.63;98147.25;4969225;28;20073;-64
2022/01/17 00:05:51;;;;;;;30.58;13.60;;;;;;;0.95;85.70;98145.13;4967956;28;20137;-65
2022/01/17 00:08:17;;;;;;;33.35;13.93;;;;;;;0.98;85.50;98149.16;4960009;28;20575;-65
2022/01/17 00:10:42;;;;;;;31.95;14.00;;;;;;;0.78;86.37;98151.84;4964384;28;20047;-64
2022/01/17 00:13:10;;;;;;;27.58;13.43;;;;;;;0.66;87.35;98144.78;4960002;28;20045;-66
2022/01/17 00:15:47;;;;;;;29.20;14.75;;;;;;;0.66;88.34;98150.19;4962915;28;20066;-66
2022/01/17 00:20:40;;;;;;;29.15;13.55;;;;;;;0.79;86.81;98146.16;4963525;28;20130;-66
2022/01/17 00:23:05;;;;;;;27.45;14.05;;;;;;;0.81;87.63;98156.69;4956041;28;20183;-67
2022/01/17 00:25:31;;;;;;;26.45;13.52;;;;;;;0.86;87.51;98154.00;4960282;28;20075;-64
2022/01/17 00:27:56;;;;;;;28.88;13.57;;;;;;;0.85;88.38;98163.19;4955783;28;20038;-64
2022/01/17 00:30:22;;;;;;;28.25;13.75;;;;;;;0.79;87.24;98162.34;4959539;28;20058;-64
2022/01/17 00:32:47;;;;;;;27.98;14.20;;;;;;;0.78;87.91;98170.72;4963439;28;20039;-65
2022/01/17 00:35:13;;;;;;;26.60;12.90;;;;;;;0.82;88.74;98171.81;4959768;28;20062;-65
2022/01/17 00:37:38;;;;;;;24.88;12.55;;;;;;;0.72;88.87;98164.50;4963622;28;20047;-65
2022/01/17 00:40:05;;;;;;;29.25;13.57;;;;;;;0.65;91.63;98162.06;4961888;28;20046;-63
2022/01/17 00:42:31;;;;;;;28.45;13.43;;;;;;;0.73;91.53;98166.13;4974570;28;20455;-65
2022/01/17 00:44:56;;;;;;;29.55;13.60;;;;;;;0.86;92.70;98179.09;4958611;28;20134;-66
2022/01/17 00:47:22;;;;;;;29.20;13.50;;;;;;;0.92;92.78;98175.34;4951736;28;20174;-66
2022/01/17 00:49:47;;;;;;;26.42;12.30;;;;;;;1.00;92.99;98174.00;4971501;28;20133;-64
2022/01/17 00:52:13;;;;;;;24.45;13.45;;;;;;;1.02;92.53;98177.22;4956470;28;20043;-66
2022/01/17 00:54:38;;;;;;;30.25;14.02;;;;;;;1.04;92.56;98179.66;4962512;28;20484;-66
2022/01/17 00:57:04;;;;;;;27.85;13.25;;;;;;;0.97;92.73;98177.22;4958552;28;20057;-68
2022/01/17 00:59:30;;;;;;;28.15;14.52;;;;;;;0.92;92.25;98174.53;4962629;28;20129;-64
2022/01/17 01:01:55;;;;;;;27.73;12.70;;;;;;;0.83;92.67;98168.84;4962592;28;20045;-65
2022/01/17 01:04:22;;;;;;;34.80;15.02;;;;;;;0.72;93.40;98170.72;4958933;28;20641;-65
2022/01/17 01:06:48;;;;;;;28.80;14.52;;;;;;;0.80;94.28;98173.97;4957476;28;20077;-65
2022/01/17 01:09:13;;;;;;;24.73;13.00;;;;;;;0.81;93.79;98165.63;4959100;28;20141;-64
2022/01/17 01:11:39;;;;;;;28.65;13.70;;;;;;;0.87;94.46;98171.81;4977999;28;20055;-63
2022/01/17 01:14:05;;;;;;;26.25;13.80;;;;;;;0.84;93.70;98164.25;4960353;28;20074;-66
2022/01/17 01:16:33;;;;;;;23.20;12.32;;;;;;;0.79;94.35;98175.03;4958653;28;20057;-64
2022/01/17 01:29:46;;;;;;;26.30;13.45;;;;;;;1.01;92.52;98186.41;4961079;28;20050;-68
2022/01/17 01:32:16;;;;;;;25.52;13.13;;;;;;;0.99;91.71;98182.34;4953078;28;20053;-64
2022/01/17 01:34:46;;;;;;;26.67;14.07;;;;;;;0.93;92.28;98184.22;4963573;28;20061;-64
2022/01/17 01:37:12;;;;;;;31.05;13.73;;;;;;;0.84;91.48;98180.44;4956083;28;20163;-62
2022/01/17 01:39:38;;;;;;;26.80;12.50;;;;;;;0.85;92.23;98176.69;4962517;28;20050;-62
2022/01/17 01:42:10;;;;;;;25.42;12.98;;;;;;;0.87;91.62;98182.63;4958543;28;20046;-68
2022/01/17 01:44:37;;;;;;;27.48;14.23;;;;;;;0.82;92.38;98179.91;4963164;28;20469;-64
2022/01/17 01:47:03;;;;;;;27.88;14.38;;;;;;;0.42;95.10;98181.41;4960910;28;20053;-65
2022/01/17 01:49:30;;;;;;;26.42;13.88;;;;;;;0.33;95.92;98184.59;4960743;28;20050;-63
2022/01/17 01:51:55;;;;;;;29.67;14.75;;;;;;;0.29;96.91;98188.06;4963301;28;20381;-63
2022/01/17 01:54:21;;;;;;;33.33;15.45;;;;;;;0.21;97.66;98186.69;4957575;28;20045;-64
2022/01/17 01:56:48;;;;;;;30.23;15.18;;;;;;;0.11;98.06;98186.66;4960366;28;20488;-64
2022/01/17 01:59:16;;;;;;;27.88;14.20;;;;;;;0.11;98.23;98184.78;4942956;28;20141;-64
2022/01/17 02:01:42;;;;;;;32.90;14.68;;;;;;;0.23;98.71;98186.44;4941694;28;20051;-65
2022/01/17 02:04:07;;;;;;;28.80;13.10;;;;;;;0.41;99.04;98179.78;4942708;28;20039;-63
2022/01/17 02:06:33;;;;;;;28.13;13.18;;;;;;;0.45;99.29;98188.94;4960607;28;20050;-65
2022/01/17 02:09:02;;;;;;;27.13;13.45;;;;;;;0.47;98.78;98193.03;4961630;28;20035;-65
2022/01/17 02:11:28;;;;;;;25.58;13.38;;;;;;;0.55;98.10;98192.50;4958389;28;20039;-64
2022/01/17 02:13:53;;;;;;;27.77;14.15;;;;;;;0.54;97.56;98188.19;4963390;28;20049;-65
2022/01/17 02:16:22;;;;;;;28.65;13.68;;;;;;;0.48;97.82;98186.53;4971268;28;20435;-65
2022/01/17 02:18:49;;;;;;;26.85;13.40;;;;;;;0.56;97.86;98179.84;4962982;28;20089;-65
2022/01/17 02:23:51;;;;;;;30.15;15.10;;;;;;;0.97;94.13;98185.31;4961146;28;20043;-66
2022/01/17 02:26:17;;;;;;;29.90;13.90;;;;;;;1.05;92.45;98181.28;4964232;28;20047;-66
2022/01/17 02:28:51;;;;;;;30.00;13.60;;;;;;;1.10;87.88;98174.00;4960899;28;20039;-62
2022/01/17 02:31:17;;;;;;;26.45;12.48;;;;;;;0.92;88.50;98177.22;4970732;28;20503;-66
2022/01/17 02:33:44;;;;;;;32.75;13.57;;;;;;;0.83;90.08;98178.81;4962452;28;20121;-65
2022/01/17 02:36:10;;;;;;;32.97;13.70;;;;;;;0.83;91.32;98181.50;4957004;28;20042;-66
2022/01/17 02:38:37;;;;;;;24.80;12.88;;;;;;;0.83;92.65;98170.72;4960787;28;20486;-66
2022/01/17 02:41:04;;;;;;;27.40;13.40;;;;;;;0.81;93.55;98180.97;4956878;28;20054;-68
2022/01/17 02:43:31;;;;;;;30.35;15.02;;;;;;;0.42;98.86;98178.72;4975049;28;20820;-65
2022/01/17 02:48:25;;;;;;;30.00;14.65;;;;;;;-0.13;100.00;98172.78;4955453;28;20054;-64
2022/01/17 02:50:51;;;;;;;29.35;15.50;;;;;;;-0.23;100.00;98168.97;4962815;28;20101;-65
2022/01/17 02:53:17;;;;;;;31.05;14.00;;;;;;;-0.05;100.00;98161.53;4957007;28;20157;-67
2022/01/17 02:55:46;;;;;;;29.20;14.20;;;;;;;0.32;100.00;98161.41;4961300;28;20038;-67
2022/01/17 02:58:13;;;;;;;29.17;13.20;;;;;;;0.45;97.70;98164.69;4965036;28;20043;-65
2022/01/17 03:00:39;;;;;;;26.38;13.73;;;;;;;0.47;96.63;98154.44;4972389;28;20058;-64
2022/01/17 03:03:09;;;;;;;29.50;13.98;;;;;;;0.46;96.28;98155.53;4958998;28;20035;-66
2022/01/17 03:05:35;;;;;;;28.02;13.65;;;;;;;0.48;95.60;98150.69;4962087;28;20039;-64
2022/01/17 03:08:00;;;;;;;26.20;13.05;;;;;;;0.61;92.92;98150.16;4959583;28;20050;-66
2022/01/17 03:10:40;;;;;;;29.27;13.95;;;;;;;0.69;91.78;98160.44;4957135;28;20039;-66
2022/01/17 03:13:18;;;;;;;30.73;14.13;;;;;;;0.71;93.37;98152.09;4956285;28;20047;-66
2022/01/17 03:15:55;;;;;;;26.63;13.13;;;;;;;0.81;92.95;98151.28;4961153;28;20041;-66
2022/01/17 03:18:23;;;;;;;30.33;14.48;;;;;;;0.71;93.85;98138.63;4956946;28;20074;-66
2022/01/17 03:20:48;;;;;;;27.40;12.48;;;;;;;0.60;94.23;98137.78;4960577;28;20106;-67
2022/01/17 03:23:14;;;;;;;27.17;12.75;;;;;;;0.51;95.58;98129.41;4953090;28;20074;-65
2022/01/17 03:25:39;;;;;;;25.15;11.48;;;;;;;0.55;96.96;98137.75;4956992;28;20039;-64
2022/01/17 03:28:05;;;;;;;24.45;12.68;;;;;;;0.56;96.74;98144.78;4967239;28;20387;-66
2022/01/17 03:30:33;;;;;;;26.15;13.13;;;;;;;0.50;96.41;98149.34;4961183;28;20035;-67
2022/01/17 03:33:00;;;;;;;28.13;12.23;;;;;;;0.51;96.54;98156.34;4960718;28;20538;-67
2022/01/17 03:35:25;;;;;;;26.05;14.05;;;;;;;0.53;97.09;98159.59;4953112;28;20050;-63
2022/01/17 03:37:51;;;;;;;28.42;13.15;;;;;;;0.45;97.64;98162.00;4959560;28;20034;-64
2022/01/17 03:40:16;;;;;;;30.98;13.10;;;;;;;0.41;98.26;98158.22;4950007;28;20041;-65
2022/01/17 03:42:42;;;;;;;26.42;12.63;;;;;;;0.47;98.50;98162.53;4959011;28;20496;-66
2022/01/17 03:45:08;;;;;;;28.00;12.27;;;;;;;0.54;99.07;98172.00;4953242;28;20069;-64
2022/01/17 03:47:35;;;;;;;28.58;13.70;;;;;;;0.55;99.09;98179.00;4959388;28;20051;-65
2022/01/17 03:50:03;;;;;;;23.42;11.75;;;;;;;0.50;98.62;98189.78;4958747;28;20101;-68
2022/01/17 03:52:28;;;;;;;25.48;12.80;;;;;;;0.50;98.78;98194.38;4956412;28;20062;-65
2022/01/17 03:54:54;;;;;;;24.67;12.32;;;;;;;0.57;98.97;98203.81;4963289;28;20039;-65
2022/01/17 03:57:19;;;;;;;23.77;11.77;;;;;;;0.61;99.21;98198.72;4958487;28;20511;-64
2022/01/17 03:59:45;;;;;;;25.55;12.75;;;;;;;0.66;99.32;98200.63;4961702;28;20035;-64
2022/01/17 04:02:10;;;;;;;23.33;12.60;;;;;;;0.63;99.61;98183.09;4949194;28;20508;-64
2022/01/17 04:04:36;;;;;;;24.45;12.82;;;;;;;0.63;98.93;98196.59;4958842;28;20117;-65
2022/01/17 04:07:01;;;;;;;23.95;12.57;;;;;;;0.62;99.51;98188.75;4959453;28;20444;-66
2022/01/17 04:09:27;;;;;;;26.58;12.07;;;;;;;0.67;99.34;98180.69;4945434;28;20157;-66
2022/01/17 04:11:52;;;;;;;24.67;12.95;;;;;;;0.70;98.80;98180.13;4959173;28;20074;-67
2022/01/17 04:14:18;;;;;;;27.10;13.32;;;;;;;0.79;98.09;98173.13;4953824;28;20042;-63
2022/01/17 04:16:43;;;;;;;27.50;14.05;;;;;;;1.14;95.67;98158.88;4958570;28;20146;-67
2022/01/17 04:19:10;;;;;;;26.50;13.60;;;;;;;1.13;94.29;98149.19;4952596;28;20078;-68
2022/01/17 04:21:36;;;;;;;27.63;14.45;;;;;;;1.00;94.98;98154.31;4953116;28;20475;-67
2022/01/17 04:24:03;;;;;;;28.02;14.32;;;;;;;0.96;94.63;98140.53;4952867;28;20047;-68
2022/01/17 04:26:29;;;;;;;29.33;14.25;;;;;;;0.82;94.89;98147.53;4953751;28;20051;-65
2022/01/17 04:28:55;;;;;;;31.10;14.77;;;;;;;0.63;96.75;98141.81;4958389;28;20053;-66
2022/01/17 04:31:20;;;;;;;29.45;13.90;;;;;;;0.55;97.02;98140.47;4944065;28;20488;-65
2022/01/17 04:33:46;;;;;;;31.45;15.15;;;;;;;0.43;98.14;98140.69;4947211;28;20043;-65
2022/01/17 04:36:11;;;;;;;27.38;13.23;;;;;;;0.29;99.08;98137.69;4938619;28;20092;-63
2022/01/17 04:38:37;;;;;;;28.00;15.20;;;;;;;0.17;99.03;98127.13;4957781;28;20456;-66
2022/01/17 04:41:12;;;;;;;31.23;14.18;;;;;;;0.07;99.48;98126.28;4960230;28;20134;-68
2022/01/17 04:46:05;;;;;;;29.20;13.65;;;;;;;-0.10;100.00;98134.56;4960657;28;20086;-68
2022/01/17 04:48:31;;;;;;;28.88;13.75;;;;;;;-0.17;100.00;98148.25;4962613;28;20082;-67
2022/01/17 04:50:58;;;;;;;23.33;13.18;;;;;;;-0.20;100.00;98154.16;4965270;28;20046;-65
2022/01/17 04:53:25;;;;;;;27.23;14.20;;;;;;;-0.38;100.00;98155.41;4958945;28;20046;-66
2022/01/17 04:55:51;;;;;;;25.85;13.45;;;;;;;-0.52;100.00;98157.75;4959065;28;20055;-67
2022/01/17 04:58:16;;;;;;;27.58;14.00;;;;;;;-0.75;100.00;98163.50;4954810;28;20396;-66
2022/01/17 05:00:46;;;;;;;28.70;14.52;;;;;;;-0.72;100.00;98168.34;4973636;28;20070;-66
2022/01/17 05:03:12;;;;;;;;;;;;;;;-0.63;100.00;98175.72;4956324;28;20413;-66
2022/01/17 05:05:38;;;;;;;27.30;14.30;;;;;;;-0.55;100.00;98177.09;4963654;28;20299;-64
2022/01/17 05:08:04;;;;;;;29.77;14.93;;;;;;;-0.50;100.00;98176.34;4967521;28;20097;-67
2022/01/17 05:10:30;;;;;;;30.05;14.27;;;;;;;-0.49;100.00;98169.88;4972540;28;20050;-66
2022/01/17 05:12:55;;;;;;;30.48;14.98;;;;;;;-0.46;100.00;98183.63;4961346;28;20507;-66
2022/01/17 05:15:30;;;;;;;31.98;15.00;;;;;;;-0.32;100.00;98186.69;4955631;28;20085;-67
2022/01/17 05:18:00;;;;;;;31.67;14.50;;;;;;;-0.15;100.00;98189.22;4962642;28;20070;-67
2022/01/17 05:20:26;;;;;;;28.58;14.15;;;;;;;-0.14;100.00;98190.84;4955453;28;20066;-66
2022/01/17 05:22:52;;;;;;;26.48;13.30;;;;;;;-0.13;100.00;98192.44;4963476;28;20523;-66
2022/01/17 05:25:18;;;;;;;27.85;14.40;;;;;;;-0.14;100.00;98190.03;4955569;28;20081;-66
2022/01/17 05:27:44;;;;;;;26.88;13.10;;;;;;;-0.17;100.00;98194.03;4959331;28;20444;-65
2022/01/17 05:30:13;;;;;;;29.48;15.07;;;;;;;-0.20;100.00;98199.94;4959073;28;20039;-65
2022/01/17 05:32:38;;;;;;;27.52;13.77;;;;;;;-0.18;100.00;98205.91;4962443;28;20046;-66
2022/01/17 05:35:05;;;;;;;27.85;14.52;;;;;;;-0.16;100.00;98211.00;4959334;28;20098;-67
2022/01/17 05:37:31;;;;;;;29.13;13.60;;;;;;;-0.14;100.00;98208.91;4963113;28;20373;-66
2022/01/17 05:39:56;;;;;;;32.08;14.27;;;;;;;-0.05;100.00;98205.44;4961739;28;20078;-66
2022/01/17 05:42:24;;;;;;;28.00;13.68;;;;;;;0.08;100.00;98197.97;4952365;28;20866;-66
2022/01/17 05:44:51;;;;;;;64.47;25.95;;;;;;;0.19;100.00;98186.16;4953517;28;20031;-64
2022/01/17 05:47:17;;;;;;;42.60;19.83;;;;;;;0.27;100.00;98192.91;4958068;28;20043;-65
2022/01/17 05:49:43;;;;;;;41.40;18.77;;;;;;;0.18;100.00;98196.13;4958691;28;20049;-64
2022/01/17 05:52:09;;;;;;;41.95;19.13;;;;;;;0.04;100.00;98215.69;4957196;28;20070;-66
2022/01/17 05:54:36;;;;;;;42.35;18.73;;;;;;;0.01;100.00;98210.84;4966170;28;20122;-65
2022/01/17 05:57:02;;;;;;;35.97;17.33;;;;;;;0.04;100.00;98207.63;4971734;28;20057;-65
2022/01/17 05:59:27;;;;;;;31.70;15.02;;;;;;;-0.03;100.00;98191.72;4967656;28;20047;-65
2022/01/17 06:01:53;;;;;;;30.25;14.60;;;;;;;0.04;100.00;98194.97;4962811;28;20046;-65
2022/01/17 06:04:20;;;;;;;34.40;15.35;;;;;;;0.07;100.00;98177.47;4954795;28;20066;-65
2022/01/17 06:06:46;;;;;;;31.48;15.85;;;;;;;0.12;100.00;98155.94;4963439;28;20497;-65
2022/01/17 06:09:12;;;;;;;49.60;20.25;;;;;;;0.30;100.00;98155.47;4956605;28;20133;-65
2022/01/17 06:11:37;;;;;;;43.53;18.27;;;;;;;-0.01;100.00;98149.16;4962793;28;20043;-65
2022/01/17 06:14:04;;;;;;;58.60;21.10;;;;;;;-0.28;100.00;98170.81;4971713;28;20065;-65
2022/01/17 06:16:30;;;;;;;48.90;21.38;;;;;;;-0.24;100.00;98174.63;4969274;28;20059;-64
2022/01/17 06:18:56;;;;;;;40.70;18.13;;;;;;;-0.29;100.00;98182.66;4962558;28;20093;-63
2022/01/17 06:21:22;;;;;;;29.30;14.52;;;;;;;-0.36;100.00;98171.31;4955336;28;20051;-65
2022/01/17 06:23:48;;;;;;;33.28;16.70;;;;;;;-0.47;100.00;98179.31;4959704;28;20053;-65
2022/01/17 06:26:14;;;;;;;32.30;15.57;;;;;;;-0.46;100.00;98183.63;4951868;28;20055;-62
2022/01/17 06:28:39;;;;;;;31.98;14.98;;;;;;;-0.41;100.00;98196.31;4959446;28;20138;-64
2022/01/17 06:31:04;;;;;;;32.53;15.45;;;;;;;-0.19;100.00;98182.72;4971416;28;20056;-66
2022/01/17 06:33:30;;;;;;;29.40;14.15;;;;;;;-0.05;100.00;98189.28;4960718;28;20047;-63
2022/01/17 06:35:55;;;;;;;33.22;15.15;;;;;;;0.01;100.00;98182.03;4960218;28;20137;-64
2022/01/17 06:38:21;;;;;;;32.58;16.25;;;;;;;0.06;100.00;98187.44;4953990;28;20054;-65
2022/01/17 06:40:46;;;;;;;29.40;16.67;;;;;;;0.09;100.00;98191.50;4959839;28;20066;-63
2022/01/17 06:43:12;;;;;;;32.58;16.05;;;;;;;0.19;100.00;98200.44;4944381;28;20051;-63
2022/01/17 06:45:38;;;;;;;29.83;14.95;;;;;;;0.27;100.00;98196.44;4957163;28;20507;-63
2022/01/17 06:48:06;;;;;;;32.28;16.33;;;;;;;0.37;100.00;98209.16;4958421;28;20039;-66
2022/01/17 06:50:32;;;;;;;32.50;15.30;;;;;;;0.40;100.00;98205.09;4971266;28;20122;-65
2022/01/17 06:52:58;;;;;;;35.67;16.30;;;;;;;0.40;100.00;98205.94;4973831;28;20043;-65
2022/01/17 06:55:24;;;;;;;33.97;15.15;;;;;;;0.33;100.00;98203.47;4957651;28;20353;-68
2022/01/17 06:57:49;;;;;;;35.00;16.05;;;;;;;0.40;100.00;98197.84;4954982;28;20165;-65
2022/01/17 07:00:15;;;;;;;33.70;16.25;;;;;;;0.42;100.00;98195.69;4952819;28;20077;-69
2022/01/17 07:02:41;;;;;;;33.92;15.95;;;;;;;0.46;100.00;98204.88;4961007;28;20097;-69
2022/01/17 07:05:07;;;;;;;30.35;15.20;;;;;;;0.52;100.00;98197.59;4954236;28;20676;-66
2022/01/17 07:07:32;;;;;;;30.73;15.07;;;;;;;0.45;100.00;98207.81;4956254;28;20049;-65
2022/01/17 07:09:58;;;;;;;32.47;16.27;;;;;;;0.27;100.00;98214.47;4960695;28;20388;-65
2022/01/17 07:12:23;;;;;;;30.92;15.65;;;;;;;0.38;100.00;98208.88;4964132;28;20536;-68
2022/01/17 07:14:49;;;;;;;30.13;15.05;;;;;;;0.42;100.00;98217.25;4958626;28;20047;-65
2022/01/17 07:17:14;;;;;;;34.22;14.90;;;;;;;0.49;100.00;98222.41;4957357;28;20047;-66
2022/01/17 07:19:40;;;;;;;29.65;15.40;;;;;;;0.30;100.00;98244.41;4958119;28;20043;-66
2022/01/17 07:22:06;;;;;;;33.65;16.40;;;;;;;0.31;100.00;98264.91;4955883;28;20129;-66
2022/01/17 07:24:33;;;;;;;38.20;16.55;;;;;;;0.44;100.00;98279.00;4960107;28;20058;-66
2022/01/17 07:26:58;;;;;;;29.83;16.10;;;;;;;0.52;100.00;98294.66;4961512;28;20058;-65
2022/01/17 07:29:26;;;;;;;31.85;15.00;;;;;;;0.57;100.00;98306.28;4956645;28;20596;-66
2022/01/17 07:31:52;;;;;;;32.05;16.48;;;;;;;0.53;100.00;98299.00;4962353;28;20069;-66
2022/01/17 07:34:19;;;;;;;33.63;16.85;;;;;;;0.45;100.00;98311.09;4950881;28;20948;-66
2022/01/17 07:36:44;;;;;;;35.33;16.55;;;;;;;0.51;100.00;98336.19;4954164;28;20113;-66
2022/01/17 07:39:10;;;;;;;32.20;16.40;;;;;;;0.52;100.00;98318.94;4952348;28;20061;-67
2022/01/17 07:41:36;;;;;;;35.38;15.80;;;;;;;0.52;100.00;98298.19;4959401;28;20038;-67
2022/01/17 07:44:03;;;;;;;30.40;14.63;;;;;;;0.55;100.00;98289.56;4961134;28;20452;-68
2022/01/17 07:46:36;;;;;;;32.25;16.38;;;;;;;0.63;100.00;98284.72;4955543;28;20373;-64
2022/01/17 07:49:10;;;;;;;35.88;14.95;;;;;;;0.73;100.00;98285.59;4957541;28;20470;-65
2022/01/17 07:51:39;;;;;;;35.72;16.13;;;;;;;0.84;100.00;98291.03;4964902;28;20097;-65
2022/01/17 07:54:05;;;;;;;39.07;17.40;;;;;;;0.90;100.00;98292.66;4961216;28;20035;-70
2022/01/17 07:56:33;;;;;;;35.13;16.77;;;;;;;0.99;100.00;98304.59;4959897;28;20411;-65
2022/01/17 07:58:58;;;;;;;34.60;18.33;;;;;;;0.92;100.00;98310.22;4960271;28;20407;-66
2022/01/17 08:01:23;;;;;;;35.33;17.02;;;;;;;0.92;100.00;98296.75;4955923;28;20054;-66
2022/01/17 08:03:49;;;;;;;33.55;17.80;;;;;;;0.89;100.00;98299.94;4961656;28;20124;-67
2022/01/17 08:06:14;;;;;;;31.15;16.23;;;;;;;0.90;100.00;98303.44;4965827;28;20174;-66
2022/01/17 08:08:40;;;;;;;36.67;16.45;;;;;;;0.91;100.00;98299.69;4961780;28;20043;-63
2022/01/17 08:11:05;;;;;;;36.28;17.85;;;;;;;0.94;100.00;98302.69;4957640;28;20053;-67
2022/01/17 08:13:31;;;;;;;37.10;16.27;;;;;;;1.01;100.00;98313.22;4958431;28;20049;-65
2022/01/17 08:15:56;;;;;;;35.97;16.80;;;;;;;1.12;100.00;98316.78;4960389;28;20059;-66
2022/01/17 08:18:22;;;;;;;33.05;15.48;;;;;;;1.25;99.42;98323.56;4959357;28;20386;-65
2022/01/17 08:20:47;;;;;;;30.88;15.52;;;;;;;1.31;99.65;98344.91;4963081;28;20046;-66
2022/01/17 08:23:13;;;;;;;31.30;15.65;;;;;;;1.31;98.54;98349.47;4956138;28;20500;-65
2022/01/17 08:25:39;;;;;;;31.77;15.15;;;;;;;1.32;98.36;98367.31;4961113;28;20815;-65
2022/01/17 08:28:05;;;;;;;30.10;16.80;;;;;;;1.30;98.62;98375.66;4971640;28;20121;-65
2022/01/17 08:30:32;;;;;;;34.13;16.85;;;;;;;1.30;98.67;98375.66;4963443;28;20046;-65
2022/01/17 08:32:58;;;;;;;34.63;16.38;;;;;;;1.33;98.66;98379.72;4959282;28;20047;-66
2022/01/17 08:35:24;;;;;;;33.88;16.40;;;;;;;1.39;98.60;98392.16;4955497;28;20142;-66
2022/01/17 08:37:49;;;;;;;30.92;16.98;;;;;;;1.47;97.36;98396.22;4964165;28;20134;-65
2022/01/17 08:40:18;;;;;;;35.95;17.38;;;;;;;1.62;96.28;98377.38;4958606;28;20035;-65
2022/01/17 08:42:44;;;;;;;40.38;15.55;;;;;;;1.62;96.39;98363.88;4964154;28;20138;-64
2022/01/17 08:45:12;;;;;;;31.45;14.80;;;;;;;1.48;97.12;98351.97;4958336;28;20125;-65
2022/01/17 08:47:38;;;;;;;35.10;15.18;;;;;;;1.47;96.94;98348.44;4964143;28;20055;-65
2022/01/17 08:50:05;;;;;;;30.05;15.73;;;;;;;1.60;96.42;98336.28;4957838;28;20121;-66
2022/01/17 08:52:31;;;;;;;31.77;16.38;;;;;;;1.62;96.91;98323.38;4965072;28;20635;-65
2022/01/17 08:54:57;;;;;;;34.63;16.83;;;;;;;1.78;93.96;98321.47;4961566;28;20102;-64
2022/01/17 08:57:24;;;;;;;37.80;16.23;;;;;;;1.84;93.81;98320.41;4959762;28;20539;-64
2022/01/17 08:59:50;;;;;;;33.75;15.38;;;;;;;1.85;93.83;98324.69;4963481;28;20054;-66
2022/01/17 09:02:16;;;;;;;34.78;15.20;;;;;;;1.82;93.48;98311.75;4956368;28;20098;-64
2022/01/17 09:04:42;;;;;;;37.08;18.20;;;;;;;1.78;93.84;98313.34;4960728;28;20042;-66
2022/01/17 09:07:13;;;;;;;45.67;18.25;;;;;;;1.75;94.72;98316.63;4953955;28;20042;-67
2022/01/17 09:09:40;;;;;;;33.20;16.17;;;;;;;1.79;94.32;98301.47;4959836;28;20085;-65
2022/01/17 09:12:07;;;;;;;33.22;15.45;;;;;;;1.71;95.76;98294.72;4950708;28;20113;-66
2022/01/17 09:14:33;;;;;;;31.65;14.65;;;;;;;1.68;96.08;98299.88;4964455;28;20065;-65
2022/01/17 09:16:59;;;;;;;36.78;15.02;;;;;;;1.62;96.28;98300.91;4962621;28;20042;-65
2022/01/17 09:19:24;;;;;;;31.00;15.20;;;;;;;1.93;94.83;98307.16;4958307;28;20101;-66
2022/01/17 09:21:50;;;;;;;34.70;16.05;;;;;;;2.13;93.48;98309.03;4961860;28;20054;-64
2022/01/17 09:24:15;;;;;;;30.38;14.63;;;;;;;2.28;92.87;98313.59;4949851;28;20065;-67
2022/01/17 09:26:41;;;;;;;33.63;15.10;;;;;;;2.34;92.05;98336.88;4961535;28;20053;-66
2022/01/17 09:29:06;;;;;;;29.77;13.98;;;;;;;2.56;91.65;98362.81;4956620;28;20047;-66
2022/01/17 09:31:32;;;;;;;31.23;15.43;;;;;;;2.34;91.07;98369.31;4962264;28;20452;-64
2022/01/17 09:33:57;;;;;;;36.45;18.10;;;;;;;1.75;95.39;98380.63;4984019;28;20138;-65
2022/01/17 09:36:25;;;;;;;36.97;19.35;;;;;;;1.42;99.35;98404.31;4957080;28;20058;-66
2022/01/17 09:38:51;;;;;;;36.47;16.17;;;;;;;1.31;100.00;98395.38;4967790;28;20559;-63
2022/01/17 09:41:17;;;;;;;31.05;15.93;;;;;;;1.35;100.00;98407.25;4957728;28;20101;-64
2022/01/17 09:43:42;;;;;;;32.25;16.80;;;;;;;1.59;99.44;98407.59;4964457;28;20051;-64
2022/01/17 09:46:09;;;;;;;28.20;14.80;;;;;;;1.97;97.60;98407.41;4959445;28;20046;-65
2022/01/17 09:48:37;;;;;;;34.47;16.48;;;;;;;1.95;96.06;98409.59;4960799;28;20105;-64
2022/01/17 09:51:16;;;;;;;34.63;15.45;;;;;;;2.00;96.08;98404.16;4958724;28;20046;-67
2022/01/17 09:53:42;;;;;;;36.83;17.25;;;;;;;1.68;96.13;98389.00;4959520;28;20043;-63
2022/01/17 09:56:08;;;;;;;38.63;16.30;;;;;;;1.87;96.52;98392.00;4958394;28;20042;-66
2022/01/17 09:58:38;;;;;;;38.00;17.80;;;;;;;2.24;93.97;98396.34;4962486;28;20046;-66
2022/01/17 10:01:05;;;;;;;32.25;17.08;;;;;;;2.65;90.84;98404.44;4953040;28;20051;-65
2022/01/17 10:03:32;;;;;;;35.05;16.63;;;;;;;2.77;89.48;98404.13;4964875;28;20050;-66
2022/01/17 10:05:57;;;;;;;42.08;20.88;;;;;;;2.84;89.34;98410.06;4962597;28;20043;-66
2022/01/17 10:08:23;;;;;;;42.10;19.70;;;;;;;2.95;88.90;98402.72;4955438;28;20742;-66
2022/01/17 10:11:04;;;;;;;36.22;18.88;;;;;;;3.03;88.83;98403.00;4961576;28;20074;-65
2022/01/17 10:13:39;;;;;;;30.50;16.20;;;;;;;3.28;87.30;98403.16;4961315;28;20047;-65
2022/01/17 10:16:11;;;;;;;32.88;16.25;;;;;;;3.40;87.81;98403.66;4955477;28;20042;-68
2022/01/17 10:18:51;;;;;;;35.97;17.45;;;;;;;3.52;87.02;98412.28;4960403;28;20074;-65
2022/01/17 10:21:44;;;;;;;33.53;17.52;;;;;;;3.77;86.81;98413.22;4956049;28;20423;-65
2022/01/17 10:37:13;;;;;;;32.53;14.50;;;;;;;4.66;81.02;98396.00;4964479;28;20042;-65
2022/01/17 10:40:04;;;;;;;23.63;12.95;;;;;;;4.62;79.96;98395.75;4966436;28;20039;-67
2022/01/17 10:42:48;;;;;;;27.42;14.07;;;;;;;4.75;80.89;98395.09;4966985;28;20398;-66
2022/01/17 10:45:17;;;;;;;29.23;13.27;;;;;;;5.01;80.20;98404.91;4976710;28;20411;-65
2022/01/17 10:47:44;;;;;;;25.92;13.05;;;;;;;4.93;80.07;98407.13;4965385;28;20042;-66
2022/01/17 10:50:14;;;;;;;24.90;13.40;;;;;;;4.85;79.83;98406.94;4955053;28;20409;-66
2022/01/17 10:52:47;;;;;;;31.05;14.30;;;;;;;4.70;79.83;98400.56;4962177;28;20050;-68
2022/01/17 10:55:18;;;;;;;28.10;13.23;;;;;;;4.88;79.79;98398.22;4958029;28;20069;-65
2022/01/17 10:57:46;;;;;;;25.48;12.45;;;;;;;4.72;80.60;98403.00;4959730;28;20051;-65
2022/01/17 11:00:15;;;;;;;27.40;12.90;;;;;;;4.97;80.38;98396.50;4954700;28;20058;-66
2022/01/17 11:02:47;;;;;;;28.58;13.88;;;;;;;4.98;79.55;98395.41;4964514;28;20097;-65
2022/01/17 11:05:14;;;;;;;24.48;12.25;;;;;;;4.63;80.50;98388.41;4957653;28;20038;-65
2022/01/17 11:07:45;;;;;;;23.65;11.68;;;;;;;4.82;80.52;98393.94;4960998;28;20125;-66
2022/01/17 11:10:20;;;;;;;25.08;12.52;;;;;;;4.90;80.26;98387.91;4967772;28;20042;-64
2022/01/17 11:12:46;;;;;;;29.63;14.07;;;;;;;5.15;80.50;98384.88;4960963;28;20042;-65
2022/01/17 11:15:13;;;;;;;24.95;11.80;;;;;;;5.32;78.42;98383.59;4953440;28;20349;-64
2022/01/17 11:17:48;;;;;;;22.95;10.43;;;;;;;5.24;79.44;98379.63;4960264;28;20074;-65
2022/01/17 11:20:18;;;;;;;19.77;9.57;;;;;;;5.63;77.92;98381.28;4953024;28;20094;-65
2022/01/17 11:22:45;;;;;;;18.88;9.27;;;;;;;5.26;79.57;98379.34;4961193;28;20385;-65
2022/01/17 11:25:15;;;;;;;20.05;7.55;;;;;;;5.34;80.48;98381.41;4954452;28;20043;-65
2022/01/17 11:27:40;;;;;;;17.27;9.30;;;;;;;5.35;80.23;98374.88;4961475;28;20089;-66
2022/01/17 11:30:07;;;;;;;14.93;7.88;;;;;;;5.50;79.67;98382.00;4951319;28;20385;-65
2022/01/17 11:32:32;;;;;;;20.02;8.25;;;;;;;5.45;79.68;98382.06;4958063;28;20046;-65
2022/01/17 11:35:02;;;;;;;21.83;8.70;;;;;;;5.92;78.60;98378.44;4958152;28;20050;-65
2022/01/17 11:37:33;;;;;;;18.25;7.82;;;;;;;5.45;79.82;98376.66;4956556;28;20046;-67
2022/01/17 11:39:58;;;;;;;18.38;8.48;;;;;;;5.42;80.08;98366.34;4960743;28;20039;-65
2022/01/17 11:42:48;;;;;;;20.17;7.63;;;;;;;5.45;80.01;98371.22;4959005;28;20113;-65
2022/01/17 11:45:22;;;;;;;17.63;8.30;;;;;;;5.78;77.92;98365.84;4961003;28;20376;-64
2022/01/17 11:47:55;;;;;;;21.38;8.38;;;;;;;5.60;79.27;98338.41;4970304;28;20145;-65
2022/01/17 11:50:34;;;;;;;16.83;7.75;;;;;;;5.99;77.87;98323.69;4958058;28;20399;-64
2022/01/17 11:53:12;;;;;;;21.17;8.60;;;;;;;6.77;75.82;98321.25;4972575;28;20046;-65
2022/01/17 11:55:41;;;;;;;28.50;8.90;;;;;;;7.68;70.79;98327.78;4963238;28;20608;-65